Time;durP1;ratioP1;P1;durP2;ratioP2;P2;SDS_P1;SDS_P2;PMS_P1;PMS_P2;Temp;Humidity;BMP_temperature;BMP_pressure;BME280_temperature;BME280_humidity;BME280_pressure;Samples;Min_cycle;Max_cycle;Signal;HPM_P1;HPM_P2
2021/06/05 04:00:47;;;;;;;14.83;13.80;;;16.20;99.90;;;;;;5743043;23;21780;-66
2021/06/05 04:03:13;;;;;;;14.83;13.87;;;16.20;99.90;;;;;;4934035;29;20465;-66
2021/06/05 04:05:40;;;;;;;15.67;14.47;;;16.20;99.90;;;;;;4937234;29;20480;-68
2021/06/05 04:08:08;;;;;;;17.23;15.87;;;16.20;99.90;;;;;;4937644;29;20469;-66
2021/06/05 04:10:34;;;;;;;15.33;13.93;;;16.20;99.90;;;;;;4937353;29;20489;-66
2021/06/05 04:13:01;;;;;;;15.53;14.43;;;16.20;99.90;;;;;;4937522;29;20493;-66
2021/06/05 04:15:28;;;;;;;16.30;14.80;;;16.20;99.90;;;;;;4937689;29;20500;-67
2021/06/05 04:18:01;;;;;;;15.70;14.60;;;16.20;99.90;;;;;;4937686;29;20465;-67
2021/06/05 04:20:27;;;;;;;14.83;13.80;;;16.40;99.90;;;;;;4937575;29;20481;-66
2021/06/05 04:22:54;;;;;;;15.67;14.57;;;16.50;99.90;;;;;;4937017;29;20462;-68
2021/06/05 04:25:20;;;;;;;14.57;13.57;;;16.90;99.90;;;;;;4937021;29;20620;-67
2021/06/05 04:27:47;;;;;;;13.70;12.70;;;17.30;99.90;;;;;;4937421;29;20469;-68
2021/06/05 04:30:16;;;;;;;13.87;12.77;;;17.70;99.90;;;;;;4937384;28;20481;-68
2021/06/05 04:32:42;;;;;;;13.67;12.47;;;18.30;99.90;;;;;;4937150;29;20469;-68
2021/06/05 04:35:11;;;;;;;12.37;11.53;;;18.90;99.90;;;;;;4937500;29;20576;-68
2021/06/05 04:37:37;;;;;;;13.40;12.57;;;19.60;99.90;;;;;;4937162;29;20469;-68
2021/06/05 04:40:05;;;;;;;12.67;11.87;;;20.10;99.90;;;;;;4937241;29;20480;-68
2021/06/05 04:42:32;;;;;;;13.33;12.30;;;20.60;99.90;;;;;;4936977;28;20497;-68
2021/06/05 04:44:58;;;;;;;12.93;12.03;;;21.10;99.90;;;;;;4937233;28;20513;-68
2021/06/05 04:47:24;;;;;;;12.60;11.90;;;21.50;99.90;;;;;;4937082;29;20476;-69
2021/06/05 04:49:50;;;;;;;12.37;11.67;;;21.60;99.90;;;;;;4937152;29;20465;-69
2021/06/05 04:52:18;;;;;;;12.00;11.30;;;21.90;99.90;;;;;;4936370;29;20482;-68
2021/06/05 04:54:44;;;;;;;10.70;10.20;;;22.40;99.90;;;;;;4936580;29;20999;-67
2021/06/05 04:57:10;;;;;;;12.00;11.30;;;22.90;99.90;;;;;;4937119;29;20469;-67
2021/06/05 04:59:36;;;;;;;11.13;10.50;;;23.10;99.90;;;;;;4936683;28;20549;-67
2021/06/05 05:02:02;;;;;;;11.40;10.80;;;23.60;99.90;;;;;;4936156;29;20497;-68
2021/06/05 05:04:29;;;;;;;11.80;11.10;;;23.90;99.90;;;;;;4936884;29;20462;-67
2021/06/05 05:06:55;;;;;;;11.70;11.10;;;24.30;99.90;;;;;;4936320;29;20477;-67
2021/06/05 05:09:22;;;;;;;12.10;11.40;;;24.30;99.90;;;;;;4936509;29;20532;-68
2021/06/05 05:11:49;;;;;;;12.00;11.27;;;24.40;99.90;;;;;;4936528;29;21065;-69
2021/06/05 05:14:15;;;;;;;11.50;10.90;;;24.40;99.90;;;;;;4936960;29;20494;-68
2021/06/05 05:16:41;;;;;;;11.53;10.83;;;24.40;99.90;;;;;;4935564;29;20536;-69
2021/06/05 05:19:07;;;;;;;10.53;10.13;;;24.50;99.90;;;;;;4936822;29;20486;-69
2021/06/05 05:21:33;;;;;;;11.00;10.50;;;24.90;99.90;;;;;;4936297;29;20510;-68
2021/06/05 05:24:00;;;;;;;11.10;10.60;;;25.00;99.90;;;;;;4936821;29;20491;-69
2021/06/05 05:26:28;;;;;;;11.53;11.03;;;24.90;99.90;;;;;;4936404;29;20479;-69
2021/06/05 05:28:56;;;;;;;10.90;10.33;;;25.00;99.90;;;;;;4936982;29;20974;-69
2021/06/05 05:31:27;;;;;;;11.23;10.63;;;25.00;99.90;;;;;;4936433;29;20492;-69
2021/06/05 05:33:54;;;;;;;10.23;9.73;;;25.30;99.90;;;;;;4936087;29;20488;-69
2021/06/05 05:36:22;;;;;;;11.20;10.70;;;25.70;99.90;;;;;;4936130;29;20477;-68
2021/06/05 05:38:49;;;;;;;12.37;11.77;;;25.60;99.90;;;;;;4935967;29;20563;-69
2021/06/05 05:41:17;;;;;;;10.90;10.40;;;25.60;99.90;;;;;;4935721;29;21005;-69
2021/06/05 05:43:45;;;;;;;12.80;12.00;;;25.60;99.90;;;;;;4935953;29;20472;-69
2021/06/05 05:46:12;;;;;;;11.47;10.87;;;25.60;99.90;;;;;;4936032;29;20473;-69
2021/06/05 05:48:39;;;;;;;10.87;10.43;;;25.20;99.90;;;;;;4935937;29;20538;-69
2021/06/05 05:51:07;;;;;;;12.40;11.40;;;25.10;99.90;;;;;;4936127;29;20496;-69
2021/06/05 05:53:35;;;;;;;10.47;10.07;;;25.40;99.90;;;;;;4935512;29;20504;-68
2021/06/05 05:56:01;;;;;;;10.67;10.27;;;25.80;99.90;;;;;;4935394;29;20467;-69
2021/06/05 05:58:27;;;;;;;10.23;9.83;;;26.10;99.90;;;;;;4935828;29;20814;-69
2021/06/05 06:00:55;;;;;;;10.60;10.10;;;26.50;99.90;;;;;;4935475;29;20497;-69
2021/06/05 06:03:22;;;;;;;15.10;10.63;;;26.90;99.90;;;;;;4935329;29;20464;-68
2021/06/05 06:05:49;;;;;;;9.60;9.10;;;27.10;99.90;;;;;;4935819;29;20473;-69
2021/06/05 06:08:18;;;;;;;10.20;9.80;;;27.60;99.90;;;;;;4935223;29;20479;-67
2021/06/05 06:10:45;;;;;;;10.50;10.00;;;27.20;99.90;;;;;;4935190;29;20502;-69
2021/06/05 06:13:11;;;;;;;9.40;9.00;;;27.30;99.90;;;;;;4935114;29;20497;-69
2021/06/05 06:15:38;;;;;;;10.90;10.40;;;27.60;99.90;;;;;;4935433;29;20534;-68
2021/06/05 06:18:08;;;;;;;10.10;9.57;;;27.80;99.90;;;;;;4935641;29;20473;-69
2021/06/05 06:20:40;;;;;;;10.80;10.30;;;28.10;99.30;;;;;;4935680;29;20500;-69
2021/06/05 06:23:07;;;;;;;9.40;9.00;;;28.00;99.70;;;;;;4934940;29;20951;-69
2021/06/05 06:25:39;;;;;;;10.13;9.63;;;28.00;99.20;;;;;;4935035;29;20494;-69
2021/06/05 06:28:06;;;;;;;9.80;9.30;;;28.20;98.70;;;;;;4934977;29;20758;-68
2021/06/05 06:30:34;;;;;;;9.47;9.07;;;28.50;98.60;;;;;;4935401;29;20495;-69
2021/06/05 06:33:02;;;;;;;9.63;9.03;;;28.70;98.10;;;;;;4934938;29;20480;-69
2021/06/05 06:35:32;;;;;;;9.10;8.70;;;29.00;97.50;;;;;;4935351;29;20586;-69
2021/06/05 06:37:59;;;;;;;8.77;8.37;;;29.40;96.70;;;;;;4934831;29;20476;-66
2021/06/05 06:40:28;;;;;;;8.97;8.67;;;29.40;96.00;;;;;;4934598;29;20475;-66
2021/06/05 06:42:54;;;;;;;9.27;8.87;;;29.50;96.10;;;;;;4934775;29;20471;-66
2021/06/05 06:45:20;;;;;;;9.17;8.80;;;29.70;95.80;;;;;;4935224;29;20472;-66
2021/06/05 06:47:47;;;;;;;8.90;8.47;;;30.00;94.40;;;;;;4935074;29;20468;-66
2021/06/05 06:50:16;;;;;;;8.57;8.27;;;29.80;94.80;;;;;;4934916;29;20966;-67
2021/06/05 06:52:43;;;;;;;8.33;7.93;;;30.10;93.70;;;;;;4934501;29;20471;-66
2021/06/05 06:55:10;;;;;;;9.10;8.70;;;30.10;94.00;;;;;;4934608;29;20476;-66
2021/06/05 06:57:37;;;;;;;8.87;8.47;;;30.20;93.00;;;;;;4934812;29;20474;-66
2021/06/05 07:00:06;;;;;;;8.37;8.07;;;30.30;93.20;;;;;;4935053;29;20472;-66
2021/06/05 07:02:32;;;;;;;8.53;8.13;;;30.40;92.70;;;;;;4934848;29;20476;-69
2021/06/05 07:04:58;;;;;;;8.97;8.53;;;30.30;92.30;;;;;;4935328;29;20460;-69
2021/06/05 07:07:24;;;;;;;8.53;8.20;;;30.60;92.50;;;;;;4934984;29;20963;-69
2021/06/05 07:09:52;;;;;;;8.60;7.90;;;30.90;91.90;;;;;;4934317;29;20480;-69
2021/06/05 07:12:18;;;;;;;8.10;7.80;;;31.10;91.10;;;;;;4934198;29;20500;-70
2021/06/05 07:14:44;;;;;;;7.83;7.63;;;31.10;90.90;;;;;;4934755;29;20499;-67
2021/06/05 07:17:10;;;;;;;7.83;7.40;;;31.10;90.70;;;;;;4934683;29;20472;-70
2021/06/05 07:19:36;;;;;;;8.20;7.73;;;31.10;90.20;;;;;;4934830;29;20526;-69
2021/06/05 07:22:03;;;;;;;7.33;7.13;;;30.90;90.30;;;;;;4934083;29;20954;-69
2021/06/05 07:24:30;;;;;;;8.20;7.90;;;30.90;89.90;;;;;;4933927;29;20487;-69
2021/06/05 07:26:58;;;;;;;8.03;7.63;;;30.90;90.10;;;;;;4934514;29;20825;-69
2021/06/05 07:29:24;;;;;;;6.80;6.60;;;31.10;88.60;;;;;;4934734;29;20464;-70
2021/06/05 07:31:52;;;;;;;7.23;6.83;;;31.20;89.10;;;;;;4934700;29;20503;-69
2021/06/05 07:34:21;;;;;;;6.80;6.70;;;31.30;86.80;;;;;;4934361;28;20528;-69
2021/06/05 07:36:50;;;;;;;7.80;7.33;;;31.20;86.70;;;;;;4934311;29;20472;-70
2021/06/05 07:39:20;;;;;;;6.80;6.60;;;30.90;86.40;;;;;;4934949;29;20832;-65
2021/06/05 07:41:46;;;;;;;6.83;6.50;;;30.90;87.10;;;;;;4938410;29;20492;-66
2021/06/05 07:44:15;;;;;;;8.03;7.63;;;30.60;85.70;;;;;;4937892;29;20834;-66
2021/06/05 07:46:43;;;;;;;7.00;6.60;;;30.60;86.40;;;;;;4938105;29;20472;-66
2021/06/05 07:49:10;;;;;;;7.37;7.10;;;30.40;87.90;;;;;;4938482;29;20471;-66
2021/06/05 07:51:36;;;;;;;6.87;6.60;;;30.70;87.60;;;;;;4937336;28;20503;-67
2021/06/05 07:54:03;;;;;;;5.93;5.73;;;31.10;85.20;;;;;;4938014;29;20492;-69
2021/06/05 07:56:29;;;;;;;5.97;5.77;;;31.40;83.70;;;;;;4937669;29;20468;-70
2021/06/05 07:58:55;;;;;;;6.80;6.60;;;31.30;82.50;;;;;;4938275;29;20514;-69
2021/06/05 08:01:23;;;;;;;6.37;6.17;;;31.30;83.10;;;;;;4937575;29;20518;-69
2021/06/05 08:03:49;;;;;;;6.40;6.20;;;31.30;80.30;;;;;;4937470;28;20477;-69
2021/06/05 08:06:16;;;;;;;6.27;6.07;;;30.70;81.30;;;;;;4937622;29;20469;-69
2021/06/05 08:08:42;;;;;;;6.30;6.10;;;30.40;82.10;;;;;;4937502;29;20514;-69
2021/06/05 08:11:09;;;;;;;5.90;5.70;;;30.30;81.70;;;;;;4937332;29;20494;-68
2021/06/05 08:13:35;;;;;;;6.37;6.17;;;30.40;81.60;;;;;;4937271;29;20523;-66
2021/06/05 08:16:02;;;;;;;6.57;6.30;;;30.40;81.60;;;;;;4937258;29;20496;-66
2021/06/05 08:18:29;;;;;;;7.03;6.73;;;30.30;82.50;;;;;;4937595;29;20916;-68
2021/06/05 08:20:59;;;;;;;5.80;5.70;;;30.20;82.20;;;;;;4937389;29;20488;-67
2021/06/05 08:23:28;;;;;;;5.77;5.57;;;30.20;83.30;;;;;;4936895;29;21012;-66
2021/06/05 08:25:55;;;;;;;6.17;5.80;;;30.30;82.10;;;;;;4937362;29;20472;-66
2021/06/05 08:28:23;;;;;;;5.50;5.30;;;30.50;83.00;;;;;;4937445;29;20468;-65
2021/06/05 08:30:51;;;;;;;6.03;5.63;;;30.60;80.40;;;;;;4937547;29;20493;-66
2021/06/05 08:33:18;;;;;;;6.23;6.00;;;30.60;80.20;;;;;;4936922;29;20945;-66
2021/06/05 08:35:46;;;;;;;5.87;5.77;;;30.50;80.40;;;;;;4937514;29;20469;-66
2021/06/05 08:38:15;;;;;;;5.40;5.20;;;30.80;80.30;;;;;;4937108;29;20469;-66
2021/06/05 08:40:45;;;;;;;5.70;5.60;;;31.30;80.40;;;;;;4936917;29;20494;-65
2021/06/05 08:43:12;;;;;;;5.40;5.30;;;31.30;79.60;;;;;;4936991;29;20469;-65
2021/06/05 08:45:39;;;;;;;5.63;5.43;;;31.10;78.30;;;;;;4937018;28;20571;-65
2021/06/05 08:48:13;;;;;;;5.50;5.40;;;30.70;77.50;;;;;;4937315;29;20476;-64
2021/06/05 08:50:39;;;;;;;6.10;5.90;;;30.60;78.40;;;;;;4936901;29;20499;-66
2021/06/05 08:53:13;;;;;;;6.13;5.93;;;30.50;78.70;;;;;;4936386;29;20871;-66
2021/06/05 08:55:42;;;;;;;5.90;5.70;;;30.40;79.60;;;;;;4936385;29;20985;-65
2021/06/05 08:58:28;;;;;;;5.53;5.40;;;30.50;79.70;;;;;;4936716;29;20907;-66
2021/06/05 09:00:57;;;;;;;5.53;5.23;;;30.50;79.40;;;;;;4936956;28;20504;-65
2021/06/05 09:03:24;;;;;;;6.73;6.53;;;30.10;78.60;;;;;;4937826;29;20465;-66
2021/06/05 09:05:54;;;;;;;6.63;6.33;;;30.00;80.30;;;;;;4937108;29;20472;-66
2021/06/05 09:08:22;;;;;;;6.53;6.23;;;29.70;80.00;;;;;;4936403;29;20821;-65
2021/06/05 09:10:52;;;;;;;6.30;6.10;;;29.50;80.10;;;;;;4936089;29;20492;-65
2021/06/05 09:13:18;;;;;;;6.60;6.40;;;29.10;81.00;;;;;;4936096;28;20474;-67
2021/06/05 09:15:45;;;;;;;6.10;5.80;;;29.00;81.10;;;;;;4936739;29;20816;-65
2021/06/05 09:18:12;;;;;;;7.70;7.37;;;28.80;81.30;;;;;;4936681;29;20488;-67
2021/06/05 09:20:41;;;;;;;7.33;6.87;;;28.70;81.90;;;;;;4936490;29;20486;-66
2021/06/05 09:23:28;;;;;;;6.70;6.40;;;28.60;82.20;;;;;;4935867;29;20544;-67
2021/06/05 09:25:55;;;;;;;7.40;6.90;;;28.50;81.50;;;;;;4936203;29;20445;-67
2021/06/05 09:28:25;;;;;;;6.53;6.30;;;28.40;82.80;;;;;;4936676;29;20483;-66
2021/06/05 09:30:54;;;;;;;6.47;6.27;;;28.40;82.20;;;;;;4936811;29;20488;-66
2021/06/05 09:33:32;;;;;;;6.27;6.07;;;28.50;83.20;;;;;;4936135;29;20468;-67
2021/06/05 09:36:23;;;;;;;7.67;7.17;;;28.40;82.50;;;;;;4936255;29;20868;-66
2021/06/05 09:38:54;;;;;;;6.50;6.20;;;28.20;82.70;;;;;;4935758;29;20974;-67
2021/06/05 09:41:27;;;;;;;6.40;6.23;;;28.20;84.00;;;;;;4935975;29;20485;-66
2021/06/05 09:44:00;;;;;;;6.70;6.30;;;28.00;83.50;;;;;;4935965;29;20466;-66
2021/06/05 09:46:31;;;;;;;6.83;6.53;;;28.00;83.40;;;;;;4936100;29;20533;-67
2021/06/05 09:49:16;;;;;;;6.70;6.20;;;27.70;85.20;;;;;;4936204;28;20477;-65
2021/06/05 09:51:44;;;;;;;6.67;6.47;;;27.70;86.00;;;;;;4935421;29;20489;-67
2021/06/05 09:54:14;;;;;;;6.70;6.40;;;27.90;85.00;;;;;;4935717;29;20872;-67
2021/06/05 09:56:44;;;;;;;6.53;6.33;;;27.80;83.70;;;;;;4935781;29;20472;-67
2021/06/05 09:59:23;;;;;;;6.93;6.63;;;27.90;83.90;;;;;;4935797;29;20537;-67
2021/06/05 10:01:59;;;;;;;6.30;6.10;;;27.90;83.40;;;;;;4934911;28;20501;-67
2021/06/05 10:04:28;;;;;;;6.07;5.67;;;28.00;84.00;;;;;;4935763;29;20476;-69
2021/06/05 10:06:56;;;;;;;6.40;6.10;;;28.10;82.70;;;;;;4935343;29;20469;-69
2021/06/05 10:09:41;;;;;;;6.47;6.17;;;28.20;83.60;;;;;;4935349;29;20466;-69
2021/06/05 10:12:13;;;;;;;5.90;5.70;;;28.20;81.90;;;;;;4935475;29;20572;-70
2021/06/05 10:14:48;;;;;;;6.53;6.23;;;28.10;82.20;;;;;;4935590;29;20490;-69
2021/06/05 10:17:22;;;;;;;6.53;6.17;;;28.00;83.20;;;;;;4935656;29;20477;-67
2021/06/05 10:19:51;;;;;;;7.17;6.50;;;28.10;83.40;;;;;;4936157;29;20469;-67
2021/06/05 10:22:19;;;;;;;6.83;6.53;;;28.00;82.40;;;;;;4935077;29;20489;-67
2021/06/05 10:24:54;;;;;;;6.37;6.03;;;27.90;83.80;;;;;;4935123;29;20458;-66
2021/06/05 10:27:25;;;;;;;6.70;6.30;;;28.00;83.30;;;;;;4935934;29;20855;-66
2021/06/05 10:29:54;;;;;;;6.67;6.37;;;28.10;83.80;;;;;;4935563;28;20482;-67
2021/06/05 10:32:25;;;;;;;6.10;5.87;;;28.00;83.70;;;;;;4934735;29;20498;-70
2021/06/05 10:34:57;;;;;;;6.50;6.20;;;28.10;82.80;;;;;;4935063;29;20923;-70
2021/06/05 10:37:27;;;;;;;6.13;5.93;;;28.20;82.70;;;;;;4935086;29;20464;-71
2021/06/05 10:39:55;;;;;;;6.13;5.93;;;28.30;82.40;;;;;;4934552;28;20532;-70
2021/06/05 10:42:25;;;;;;;5.60;5.40;;;28.30;82.70;;;;;;4935191;29;20484;-70
2021/06/05 10:44:52;;;;;;;5.60;5.40;;;28.40;80.10;;;;;;4935471;29;20469;-70
2021/06/05 10:47:23;;;;;;;5.57;5.47;;;28.30;78.50;;;;;;4935063;29;20476;-70
2021/06/05 10:49:55;;;;;;;5.23;5.13;;;28.40;78.50;;;;;;4934992;29;20841;-70
2021/06/05 10:52:29;;;;;;;5.10;4.90;;;28.50;77.70;;;;;;4934221;29;20493;-70
2021/06/05 10:54:59;;;;;;;5.70;5.43;;;28.40;76.20;;;;;;4934295;29;20639;-69
2021/06/05 10:57:45;;;;;;;6.40;5.90;;;28.40;78.30;;;;;;4935145;29;20474;-69
2021/06/05 11:00:46;;;;;;;5.20;4.90;;;28.40;80.40;;;;;;4934900;29;20980;-69
2021/06/05 11:03:50;;;;;;;6.00;5.60;;;28.50;77.80;;;;;;4934711;29;20512;-69
2021/06/05 11:06:20;;;;;;;5.97;5.67;;;28.60;77.40;;;;;;4935338;29;20484;-69
2021/06/05 11:08:56;;;;;;;5.67;5.30;;;28.60;76.20;;;;;;4934514;29;20501;-69
2021/06/05 11:11:40;;;;;;;6.67;6.13;;;28.60;76.50;;;;;;4934356;29;20496;-69
2021/06/05 11:14:23;;;;;;;5.40;5.20;;;28.40;78.90;;;;;;4937102;29;20852;-70
2021/06/05 11:17:30;;;;;;;4.97;4.77;;;28.50;77.90;;;;;;4930659;29;20991;-69
2021/06/05 11:20:38;;;;;;;5.80;5.60;;;28.60;77.10;;;;;;4938754;29;20476;-69
2021/06/05 11:23:17;;;;;;;5.77;5.53;;;28.70;78.80;;;;;;4938274;29;20964;-70
2021/06/05 11:25:47;;;;;;;6.83;6.20;;;28.70;78.40;;;;;;4938855;29;20998;-69
2021/06/05 11:28:48;;;;;;;6.30;6.10;;;28.70;78.80;;;;;;4938796;29;20472;-69
2021/06/05 11:31:50;;;;;;;6.77;6.30;;;28.70;79.40;;;;;;4938814;28;21095;-69
2021/06/05 11:34:56;;;;;;;6.33;6.03;;;28.80;78.60;;;;;;4938327;29;20515;-70
2021/06/05 11:37:46;;;;;;;6.17;5.87;;;28.90;77.50;;;;;;4938332;29;20465;-70
2021/06/05 11:40:13;;;;;;;5.83;5.43;;;29.00;77.40;;;;;;4938623;29;20585;-70
2021/06/05 11:42:54;;;;;;;6.27;5.97;;;29.00;76.30;;;;;;4937888;29;20476;-67
2021/06/05 11:45:48;;;;;;;6.20;5.90;;;29.10;77.10;;;;;;4938334;29;20461;-67
2021/06/05 11:48:37;;;;;;;6.30;5.80;;;29.20;77.70;;;;;;4936269;29;20475;-67
2021/06/05 11:51:29;;;;;;;6.17;5.90;;;29.20;77.00;;;;;;4938211;29;20491;-67
2021/06/05 11:53:58;;;;;;;5.70;5.37;;;29.00;76.90;;;;;;4933082;28;20495;-67
2021/06/05 11:56:27;;;;;;;5.60;5.40;;;28.70;77.20;;;;;;4937740;29;20474;-67
2021/06/05 11:58:53;;;;;;;5.73;5.40;;;28.40;76.90;;;;;;4937913;29;20469;-67
2021/06/05 12:01:27;;;;;;;5.73;5.60;;;28.50;80.00;;;;;;4937780;29;20555;-67
2021/06/05 12:04:03;;;;;;;6.37;6.07;;;28.60;78.20;;;;;;4937626;28;20505;-67
2021/06/05 12:06:34;;;;;;;6.13;5.80;;;28.80;78.20;;;;;;4937869;29;20477;-68
2021/06/05 12:09:07;;;;;;;5.60;5.40;;;29.10;77.90;;;;;;4938159;29;20479;-67
2021/06/05 12:11:39;;;;;;;6.23;6.03;;;29.20;76.20;;;;;;4937498;29;20512;-67
2021/06/05 12:14:14;;;;;;;5.93;5.73;;;29.20;76.80;;;;;;4937602;29;20500;-68
2021/06/05 12:16:50;;;;;;;5.80;5.70;;;29.20;76.30;;;;;;4938247;29;20478;-68
2021/06/05 12:19:17;;;;;;;5.93;5.73;;;29.20;76.70;;;;;;4938412;29;20536;-69
2021/06/05 12:21:44;;;;;;;6.40;6.07;;;29.40;78.20;;;;;;4937182;29;20500;-69
2021/06/05 12:24:22;;;;;;;6.97;6.57;;;29.50;78.00;;;;;;4937622;29;20778;-68
2021/06/05 12:26:54;;;;;;;6.13;5.93;;;29.50;77.40;;;;;;4937210;29;20453;-69
2021/06/05 12:29:24;;;;;;;6.07;5.87;;;29.50;78.40;;;;;;4937304;28;20584;-70
2021/06/05 12:31:54;;;;;;;5.50;5.40;;;29.40;75.20;;;;;;4937430;29;20638;-70
2021/06/05 12:34:30;;;;;;;6.10;5.90;;;29.50;76.50;;;;;;4938013;29;20828;-69
2021/06/05 12:36:59;;;;;;;4.97;4.77;;;29.50;75.10;;;;;;4936766;29;20468;-69
2021/06/05 12:39:38;;;;;;;5.40;5.20;;;29.40;75.40;;;;;;4936774;29;20507;-70
2021/06/05 12:42:07;;;;;;;5.50;5.20;;;29.50;74.40;;;;;;4937012;29;20555;-69
2021/06/05 12:44:39;;;;;;;5.53;5.33;;;29.50;74.00;;;;;;4937131;28;20488;-69
2021/06/05 12:47:11;;;;;;;5.33;5.20;;;29.50;74.40;;;;;;4937341;29;20869;-69
2021/06/05 12:49:38;;;;;;;5.67;5.47;;;29.40;74.60;;;;;;4937022;29;20502;-69
2021/06/05 12:52:11;;;;;;;6.73;6.17;;;29.40;75.60;;;;;;4936412;29;20487;-68
2021/06/05 12:54:40;;;;;;;5.90;5.70;;;29.40;76.40;;;;;;4936525;29;21199;-68
2021/06/05 12:57:26;;;;;;;6.50;6.30;;;29.30;76.90;;;;;;4936974;29;20565;-69
2021/06/05 12:59:53;;;;;;;5.27;5.10;;;29.50;75.50;;;;;;4937242;29;20471;-70
2021/06/05 13:02:25;;;;;;;5.40;5.23;;;29.50;70.40;;;;;;4936830;29;20504;-70
2021/06/05 13:04:52;;;;;;;5.13;4.90;;;29.50;72.30;;;;;;4937260;29;20479;-69
2021/06/05 13:07:32;;;;;;;5.57;5.27;;;29.40;72.30;;;;;;4936726;29;20471;-71
2021/06/05 13:10:13;;;;;;;5.10;4.90;;;29.20;72.80;;;;;;4936567;29;20833;-69
2021/06/05 13:12:40;;;;;;;5.23;5.03;;;29.00;73.30;;;;;;4937423;29;20474;-71
2021/06/05 13:15:11;;;;;;;5.10;5.00;;;28.80;72.90;;;;;;4936831;28;20992;-69
2021/06/05 13:17:42;;;;;;;5.23;5.00;;;28.70;73.00;;;;;;4938346;29;20857;-69
2021/06/05 13:20:34;;;;;;;5.97;5.70;;;28.70;76.00;;;;;;4937885;29;20596;-69
2021/06/05 13:23:26;;;;;;;4.97;4.63;;;28.70;74.90;;;;;;4936090;29;20476;-69
2021/06/05 13:25:53;;;;;;;4.30;4.20;;;28.70;75.70;;;;;;4936026;29;20511;-69
2021/06/05 13:28:29;;;;;;;5.67;5.57;;;28.80;74.90;;;;;;4936532;29;20470;-69
2021/06/05 13:30:57;;;;;;;4.57;4.37;;;29.00;72.50;;;;;;4936665;29;20884;-69
2021/06/05 13:33:32;;;;;;;4.30;4.20;;;29.00;71.40;;;;;;4936280;29;20470;-69
2021/06/05 13:36:03;;;;;;;5.20;5.10;;;29.00;70.90;;;;;;4936386;29;20463;-68
2021/06/05 13:38:31;;;;;;;4.90;4.80;;;29.00;71.50;;;;;;4935023;28;20483;-69
2021/06/05 13:40:59;;;;;;;4.63;4.30;;;29.00;72.40;;;;;;4935971;29;20490;-68
2021/06/05 13:43:27;;;;;;;6.10;5.90;;;28.90;72.30;;;;;;4935628;29;20462;-68
2021/06/05 13:45:53;;;;;;;6.27;6.00;;;28.80;73.70;;;;;;4935949;29;20462;-68
2021/06/05 13:48:20;;;;;;;6.00;5.70;;;28.70;74.30;;;;;;4935821;29;20474;-68
2021/06/05 13:50:49;;;;;;;6.03;5.83;;;28.60;76.40;;;;;;4935689;29;20486;-68
2021/06/05 13:53:18;;;;;;;6.30;5.90;;;28.60;76.30;;;;;;4935383;29;20944;-68
2021/06/05 13:55:51;;;;;;;5.60;5.50;;;28.60;76.10;;;;;;4935606;29;20490;-68
2021/06/05 13:58:17;;;;;;;5.83;5.67;;;28.60;75.60;;;;;;4935651;29;20491;-68
2021/06/05 14:00:45;;;;;;;6.20;5.90;;;28.40;76.30;;;;;;4935254;28;20969;-68
2021/06/05 14:03:12;;;;;;;6.50;6.20;;;28.30;76.60;;;;;;4935660;29;20512;-68
2021/06/05 14:05:39;;;;;;;5.83;5.63;;;28.10;77.50;;;;;;4935915;29;20551;-69
2021/06/05 14:08:07;;;;;;;5.97;5.70;;;28.00;76.80;;;;;;4937675;29;20466;-69
2021/06/05 14:10:34;;;;;;;6.27;5.97;;;28.00;78.30;;;;;;4935814;29;20489;-67
2021/06/05 14:13:00;;;;;;;6.23;6.03;;;28.00;77.50;;;;;;4935619;29;20469;-68
2021/06/05 14:15:29;;;;;;;6.27;5.97;;;27.90;79.30;;;;;;4935547;28;20500;-68
2021/06/05 14:17:56;;;;;;;6.13;5.83;;;28.00;79.70;;;;;;4935463;29;20907;-68
2021/06/05 14:20:25;;;;;;;6.73;6.30;;;28.00;79.70;;;;;;4935241;29;20480;-68
2021/06/05 14:22:52;;;;;;;7.00;6.60;;;28.00;80.20;;;;;;4934781;29;20477;-68
2021/06/05 14:25:21;;;;;;;6.67;6.40;;;28.00;82.00;;;;;;4934753;29;20473;-70
2021/06/05 14:27:47;;;;;;;7.00;6.70;;;28.00;83.40;;;;;;4935740;29;20750;-69
2021/06/05 14:30:19;;;;;;;10.40;7.30;;;27.80;87.70;;;;;;4935459;29;20897;-70
2021/06/05 14:32:45;;;;;;;8.30;7.90;;;27.50;90.60;;;;;;4935671;29;20492;-70
2021/06/05 14:35:12;;;;;;;8.60;7.90;;;27.30;91.60;;;;;;4935340;29;20492;-69
2021/06/05 14:37:38;;;;;;;9.60;9.00;;;27.20;92.70;;;;;;4934775;29;20477;-66
2021/06/05 14:40:06;;;;;;;9.40;8.90;;;27.00;93.30;;;;;;4934927;29;20872;-65
2021/06/05 14:42:34;;;;;;;9.07;8.30;;;26.90;94.20;;;;;;4935732;29;20469;-65
2021/06/05 14:45:00;;;;;;;9.53;8.97;;;26.80;94.70;;;;;;4935899;29;20472;-65
2021/06/05 14:47:30;;;;;;;10.20;9.60;;;26.60;95.30;;;;;;4935247;29;20469;-65
2021/06/05 14:49:57;;;;;;;8.87;8.37;;;26.40;96.00;;;;;;4934908;29;20561;-66
2021/06/05 14:52:24;;;;;;;9.73;9.10;;;26.40;96.80;;;;;;4934431;29;20489;-65
2021/06/05 14:54:50;;;;;;;9.00;8.60;;;26.40;97.30;;;;;;4934870;29;20553;-65
2021/06/05 14:57:17;;;;;;;8.33;8.03;;;26.30;98.20;;;;;;4934959;29;20568;-65
2021/06/05 14:59:44;;;;;;;9.83;9.20;;;26.20;99.00;;;;;;4935327;29;20465;-65
2021/06/05 15:02:18;;;;;;;9.80;9.30;;;26.10;99.90;;;;;;4934908;29;21037;-65
2021/06/05 15:04:46;;;;;;;9.87;9.37;;;26.00;99.90;;;;;;4935600;29;20480;-66
2021/06/05 15:07:12;;;;;;;9.43;9.00;;;25.90;99.90;;;;;;4934311;29;20843;-65
2021/06/05 15:09:39;;;;;;;10.07;9.53;;;25.70;99.90;;;;;;4934794;29;20469;-66
2021/06/05 15:12:07;;;;;;;10.40;9.90;;;25.60;99.90;;;;;;4934685;29;20500;-67
2021/06/05 15:14:33;;;;;;;10.67;10.07;;;25.50;99.90;;;;;;4934729;29;20489;-66
2021/06/05 15:17:01;;;;;;;10.23;9.63;;;25.40;99.90;;;;;;4934641;29;20771;-67
2021/06/05 15:19:27;;;;;;;10.93;10.30;;;25.30;99.90;;;;;;4934670;29;20461;-67
2021/06/05 15:21:54;;;;;;;11.60;11.00;;;25.30;99.90;;;;;;4934516;29;20500;-66
2021/06/05 15:24:20;;;;;;;11.57;10.77;;;25.00;99.90;;;;;;4934109;29;20538;-66
2021/06/05 15:26:46;;;;;;;11.30;10.63;;;24.70;99.90;;;;;;4934728;29;20521;-66
2021/06/05 15:29:12;;;;;;;11.87;11.10;;;24.60;99.90;;;;;;4934825;29;20897;-67
2021/06/05 15:31:39;;;;;;;12.70;11.90;;;24.50;99.90;;;;;;4935089;29;20498;-66
2021/06/05 15:34:06;;;;;;;12.87;12.07;;;24.50;99.90;;;;;;4934402;29;20540;-66
2021/06/05 15:36:32;;;;;;;11.47;10.83;;;24.50;99.90;;;;;;4934174;29;20493;-68
2021/06/05 15:38:59;;;;;;;13.60;12.80;;;24.40;99.90;;;;;;4934845;29;20473;-66
2021/06/05 15:41:27;;;;;;;11.87;11.10;;;24.30;99.90;;;;;;4934139;29;20497;-65
2021/06/05 15:43:54;;;;;;;12.67;12.00;;;24.30;99.90;;;;;;4934655;29;20474;-66
2021/06/05 15:46:21;;;;;;;13.47;12.67;;;24.10;99.90;;;;;;4934622;29;20469;-66
2021/06/05 15:48:49;;;;;;;13.50;12.70;;;24.00;99.90;;;;;;4934579;29;20470;-66
2021/06/05 15:51:20;;;;;;;14.17;13.07;;;23.90;99.90;;;;;;4934458;29;20830;-66
2021/06/05 15:53:48;;;;;;;13.80;13.00;;;23.80;99.90;;;;;;4934354;29;20520;-66
2021/06/05 15:56:17;;;;;;;14.50;13.60;;;23.70;99.90;;;;;;4934133;29;21025;-66
2021/06/05 15:58:43;;;;;;;13.83;12.97;;;23.60;99.90;;;;;;4934751;29;20493;-66
2021/06/05 16:01:11;;;;;;;14.47;13.47;;;23.50;99.90;;;;;;4936397;29;20844;-67
2021/06/05 16:03:38;;;;;;;15.70;14.70;;;23.40;99.90;;;;;;4938030;29;20523;-66
2021/06/05 16:06:05;;;;;;;13.63;12.83;;;23.30;99.90;;;;;;4938636;29;20484;-66
2021/06/05 16:08:32;;;;;;;14.90;13.80;;;23.20;99.90;;;;;;4937702;29;20462;-66
2021/06/05 16:10:59;;;;;;;14.47;13.57;;;23.10;99.90;;;;;;4937400;29;20485;-66
2021/06/05 16:13:25;;;;;;;15.60;14.60;;;22.90;99.90;;;;;;4938469;29;20465;-70
2021/06/05 16:15:56;;;;;;;14.33;13.17;;;22.70;99.90;;;;;;4937489;28;20497;-71
2021/06/05 16:18:25;;;;;;;14.93;13.93;;;22.70;99.90;;;;;;4937871;29;20905;-71
2021/06/05 16:20:52;;;;;;;14.97;13.90;;;22.70;99.90;;;;;;4937645;29;20501;-71
2021/06/05 16:23:19;;;;;;;16.07;14.87;;;22.70;99.90;;;;;;4937156;29;20528;-70
2021/06/05 16:25:47;;;;;;;16.33;15.13;;;22.70;99.90;;;;;;4937296;29;20467;-71
2021/06/05 16:28:14;;;;;;;15.13;14.13;;;22.60;99.90;;;;;;4937287;28;20493;-70
2021/06/05 16:30:40;;;;;;;15.70;14.60;;;22.50;99.90;;;;;;4937618;29;20556;-71
2021/06/05 16:33:10;;;;;;;16.17;15.00;;;22.50;99.90;;;;;;4937734;29;20470;-71
2021/06/05 16:35:41;;;;;;;15.20;14.20;;;22.50;99.90;;;;;;4937673;29;20497;-71
2021/06/05 16:38:09;;;;;;;16.60;15.50;;;22.50;99.90;;;;;;4937122;29;20465;-70
2021/06/05 16:40:37;;;;;;;18.00;16.70;;;22.50;99.90;;;;;;4936841;29;20489;-70
2021/06/05 16:43:05;;;;;;;18.07;16.87;;;22.50;99.90;;;;;;4937170;29;20517;-71
2021/06/05 16:45:32;;;;;;;17.20;16.10;;;22.50;99.90;;;;;;4937336;29;20484;-71
2021/06/05 16:47:58;;;;;;;18.00;16.63;;;22.50;99.90;;;;;;4937287;29;20469;-71
2021/06/05 16:50:29;;;;;;;17.43;16.23;;;22.50;99.90;;;;;;4937341;29;20493;-70
2021/06/05 16:52:56;;;;;;;18.10;16.90;;;22.40;99.90;;;;;;4936552;28;20552;-70
2021/06/05 16:55:23;;;;;;;16.83;15.70;;;22.40;99.90;;;;;;4936670;29;20515;-71